createdAt,value
2022-08-17T00:00:43.678Z,24.50
2022-08-17T00:03:38.606Z,24.50
2022-08-17T00:06:13.237Z,24.60
2022-08-17T00:08:48.951Z,24.60
2022-08-17T00:11:22.080Z,24.70
2022-08-17T00:13:56.237Z,24.70
2022-08-17T00:16:56.456Z,24.80
2022-08-17T00:19:24.788Z,24.80
2022-08-17T00:22:30.746Z,24.90
2022-08-17T00:24:46.631Z,25.00
2022-08-17T00:27:15.800Z,25.00
2022-08-17T00:29:46.582Z,25.10
2022-08-17T00:33:11.854Z,25.10
2022-08-17T00:35:10.323Z,25.10
2022-08-17T00:37:38.953Z,25.20
2022-08-17T00:40:09.428Z,25.20
2022-08-17T00:42:39.191Z,25.30
2022-08-17T00:45:10.866Z,25.40
2022-08-17T00:47:40.404Z,25.40
2022-08-17T00:50:14.463Z,25.50
2022-08-17T00:52:56.055Z,25.50
2022-08-17T00:55:26.996Z,25.60
2022-08-17T00:58:01.792Z,25.60
2022-08-17T01:00:41.477Z,25.60
2022-08-17T01:03:23.652Z,25.60
2022-08-17T01:05:56.583Z,25.70
2022-08-17T01:08:28.641Z,25.70
2022-08-17T01:11:03.246Z,25.80
2022-08-17T01:13:42.289Z,25.90
2022-08-17T01:16:17.032Z,25.90
2022-08-17T01:18:49.506Z,26.00
2022-08-17T01:21:53.237Z,26.00
2022-08-17T01:24:22.349Z,26.00
2022-08-17T01:26:51.415Z,26.00
2022-08-17T01:29:22.703Z,26.00
2022-08-17T01:31:57.134Z,26.10
2022-08-17T01:34:36.815Z,26.10
2022-08-17T01:37:13.477Z,26.10
2022-08-17T01:39:53.422Z,26.10
2022-08-17T01:42:34.719Z,26.20
2022-08-17T01:45:21.602Z,26.30
2022-08-17T01:47:52.320Z,26.30
2022-08-17T01:50:28.278Z,26.40
2022-08-17T01:53:10.632Z,26.50
2022-08-17T01:55:47.183Z,26.60
2022-08-17T01:58:16.276Z,26.60
2022-08-17T02:00:59.893Z,26.70
2022-08-17T02:03:32.362Z,26.80
2022-08-17T02:06:02.350Z,26.90
2022-08-17T02:08:38.934Z,27.00
2022-08-17T02:11:18.112Z,27.00
2022-08-17T02:14:02.862Z,27.00
2022-08-17T02:16:37.695Z,27.00
2022-08-17T02:19:17.118Z,27.10
2022-08-17T02:21:49.734Z,27.20
2022-08-17T02:24:58.671Z,27.20
2022-08-17T02:27:29.502Z,27.30
2022-08-17T02:29:58.897Z,27.40
2022-08-17T02:32:28.914Z,27.40
2022-08-17T02:34:59.678Z,27.50
2022-08-17T02:37:33.027Z,27.50
2022-08-17T02:40:02.533Z,27.60
2022-08-17T02:42:39.989Z,27.60
2022-08-17T02:45:18.627Z,27.60
2022-08-17T02:47:48.707Z,27.80
2022-08-17T02:50:21.132Z,27.90
2022-08-17T02:53:02.094Z,28.00
2022-08-17T02:55:35.836Z,28.20
2022-08-17T02:58:05.874Z,28.40
2022-08-17T03:00:43.764Z,28.50
2022-08-17T03:03:14.830Z,28.70
2022-08-17T03:05:44.182Z,28.70
2022-08-17T03:08:13.694Z,28.90
2022-08-17T03:10:43.240Z,29.00
2022-08-17T03:13:14.410Z,29.10
2022-08-17T03:15:48.159Z,29.20
2022-08-17T03:18:21.929Z,29.20
2022-08-17T03:20:59.099Z,29.30
2022-08-17T03:23:30.429Z,29.30
2022-08-17T03:26:00.167Z,29.30
2022-08-17T03:28:29.427Z,29.30
2022-08-17T03:30:58.525Z,29.30
2022-08-17T03:33:27.690Z,29.40
2022-08-17T03:35:56.857Z,29.50
2022-08-17T03:38:26.020Z,29.60
2022-08-17T03:40:59.771Z,29.60
2022-08-17T03:43:31.822Z,29.70
2022-08-17T03:46:28.508Z,30.00
2022-08-17T03:49:23.959Z,30.20
2022-08-17T03:52:11.572Z,30.40
2022-08-17T03:55:00.072Z,30.60
2022-08-17T03:57:30.246Z,30.70
2022-08-17T03:59:59.390Z,31.00
2022-08-17T04:02:34.470Z,31.10
2022-08-17T04:05:03.766Z,31.10
2022-08-17T04:07:33.671Z,31.10
2022-08-17T04:10:02.849Z,31.10
2022-08-17T04:12:50.986Z,31.10
2022-08-17T04:15:20.638Z,31.20
2022-08-17T04:17:50.465Z,31.20
2022-08-17T04:20:21.784Z,31.20
2022-08-17T04:23:05.987Z,31.20
2022-08-17T04:25:37.707Z,31.20
2022-08-17T04:28:15.721Z,31.10
2022-08-17T04:30:46.960Z,31.10
2022-08-17T04:33:23.005Z,31.10
2022-08-17T04:35:55.167Z,31.00
2022-08-17T04:38:29.029Z,30.90
2022-08-17T04:41:17.554Z,30.90
2022-08-17T04:43:48.609Z,30.90
2022-08-17T04:46:20.548Z,30.90
2022-08-17T04:48:53.447Z,30.90
2022-08-17T04:51:29.217Z,30.90
2022-08-17T04:54:02.124Z,30.90
2022-08-17T04:56:32.851Z,30.90
2022-08-17T04:59:09.989Z,30.90
2022-08-17T05:01:42.739Z,31.00
2022-08-17T05:04:34.559Z,31.10
2022-08-17T05:07:05.621Z,31.10
2022-08-17T05:09:34.830Z,31.00
2022-08-17T05:12:04.392Z,30.90
2022-08-17T05:14:33.982Z,30.90
2022-08-17T05:17:07.023Z,30.80
2022-08-17T05:19:40.516Z,30.90
2022-08-17T05:22:09.852Z,31.10
2022-08-17T05:24:43.539Z,31.20
2022-08-17T05:27:23.900Z,31.40
2022-08-17T05:29:53.284Z,31.60
2022-08-17T05:32:37.821Z,31.70
2022-08-17T05:35:09.685Z,31.80
2022-08-17T05:37:38.848Z,32.00
2022-08-17T05:40:08.800Z,32.10
2022-08-17T05:42:37.920Z,32.10
2022-08-17T05:45:08.012Z,32.00
2022-08-17T05:47:37.964Z,32.00
2022-08-17T05:50:10.056Z,32.10
2022-08-17T05:52:48.548Z,32.10
2022-08-17T05:55:20.319Z,32.20
2022-08-17T05:58:07.011Z,32.20
2022-08-17T06:01:25.573Z,32.30
2022-08-17T06:04:03.013Z,32.30
2022-08-17T06:06:50.492Z,32.40
2022-08-17T06:09:57.695Z,32.50
2022-08-17T06:12:36.105Z,32.70
2022-08-17T06:15:20.666Z,32.70
2022-08-17T06:17:52.595Z,32.70
2022-08-17T06:20:21.732Z,32.70
2022-08-17T06:22:55.900Z,32.70
2022-08-17T06:25:44.016Z,32.60
2022-08-17T06:28:22.435Z,32.70
2022-08-17T06:31:07.969Z,32.70
2022-08-17T06:33:41.653Z,32.70
2022-08-17T06:36:27.518Z,32.70
2022-08-17T06:39:14.797Z,32.60
2022-08-17T06:42:03.491Z,32.40
2022-08-17T06:44:43.336Z,32.20
2022-08-17T06:47:29.801Z,32.00
2022-08-17T06:50:23.334Z,31.80
2022-08-17T06:53:18.777Z,31.60
2022-08-17T06:55:51.236Z,31.30
2022-08-17T06:58:29.672Z,31.20
2022-08-17T07:01:04.420Z,31.10
2022-08-17T07:03:58.058Z,30.90
2022-08-17T07:06:38.029Z,30.60
2022-08-17T07:09:27.836Z,30.20
2022-08-17T07:12:24.337Z,29.90
2022-08-17T07:15:20.075Z,29.60
2022-08-17T07:17:50.094Z,29.40
2022-08-17T07:20:23.498Z,29.30
2022-08-17T07:23:00.776Z,29.10
2022-08-17T07:25:31.694Z,29.00
2022-08-17T07:28:06.984Z,29.00
2022-08-17T07:30:51.807Z,28.90
2022-08-17T07:33:27.759Z,28.90
2022-08-17T07:35:59.272Z,28.90
2022-08-17T07:38:33.869Z,29.00
2022-08-17T07:41:07.361Z,29.20
2022-08-17T07:43:42.595Z,29.30
2022-08-17T07:46:40.885Z,29.40
2022-08-17T07:49:16.044Z,29.50
2022-08-17T07:51:45.347Z,29.60
2022-08-17T07:54:23.550Z,29.70
2022-08-17T07:56:55.609Z,29.80
2022-08-17T07:59:40.735Z,29.90
2022-08-17T08:02:31.933Z,29.90
2022-08-17T08:05:30.714Z,29.90
2022-08-17T08:08:38.262Z,30.00
2022-08-17T08:11:16.317Z,30.00
2022-08-17T08:13:46.603Z,30.00
2022-08-17T08:16:26.866Z,30.10
2022-08-17T08:18:59.617Z,30.10
2022-08-17T08:21:53.271Z,30.10
2022-08-17T08:24:30.129Z,30.10
2022-08-17T08:27:33.894Z,30.20
2022-08-17T08:30:16.734Z,30.20
2022-08-17T08:33:05.306Z,30.30
2022-08-17T08:35:36.752Z,30.40
2022-08-17T08:38:46.003Z,30.50
2022-08-17T08:41:59.966Z,30.60
2022-08-17T08:45:00.011Z,30.70
2022-08-17T08:47:46.679Z,30.70
2022-08-17T08:50:37.470Z,30.80
2022-08-17T08:53:22.509Z,30.80
2022-08-17T08:56:21.144Z,30.90
2022-08-17T08:59:26.079Z,30.90
2022-08-17T09:02:38.984Z,30.90
2022-08-17T09:05:23.448Z,31.00
2022-08-17T09:07:57.666Z,31.00
2022-08-17T09:10:41.703Z,31.10
2022-08-17T09:13:28.739Z,31.00
2022-08-17T09:16:08.372Z,31.00
2022-08-17T09:19:01.563Z,30.90
2022-08-17T09:21:47.804Z,30.90
2022-08-17T09:24:34.888Z,30.90
2022-08-17T09:27:15.766Z,30.80
2022-08-17T09:30:03.622Z,30.80
2022-08-17T09:32:51.086Z,30.80
2022-08-17T09:35:48.453Z,30.70
2022-08-17T09:38:30.474Z,30.60
2022-08-17T09:41:01.014Z,30.60
2022-08-17T09:44:00.282Z,30.60
2022-08-17T09:46:46.969Z,30.60
2022-08-17T09:49:16.163Z,30.50
2022-08-17T09:51:54.900Z,30.60
2022-08-17T09:54:39.273Z,30.60
2022-08-17T09:57:30.777Z,30.60
2022-08-17T10:00:19.774Z,30.60
2022-08-17T10:03:10.739Z,30.70
2022-08-17T10:06:01.370Z,30.70
2022-08-17T10:08:53.016Z,30.70
2022-08-17T10:11:55.610Z,30.80
2022-08-17T10:14:43.671Z,30.80
2022-08-17T10:17:37.806Z,30.80
2022-08-17T10:20:24.521Z,30.90
2022-08-17T10:23:24.021Z,30.80
2022-08-17T10:26:16.452Z,30.80
2022-08-17T10:28:45.698Z,30.80
2022-08-17T10:31:34.613Z,30.70
2022-08-17T10:34:25.383Z,30.70
2022-08-17T10:37:08.653Z,30.70
2022-08-17T10:39:53.173Z,30.60
2022-08-17T10:43:04.695Z,30.60
2022-08-17T10:46:21.308Z,30.50
2022-08-17T10:48:45.096Z,30.50
2022-08-17T10:51:39.112Z,30.50
2022-08-17T10:54:29.454Z,30.40
2022-08-17T10:56:59.295Z,30.40
2022-08-17T10:59:38.248Z,30.30
2022-08-17T11:02:20.050Z,30.30
2022-08-17T11:05:19.757Z,30.20
2022-08-17T11:08:25.364Z,30.20
2022-08-17T11:11:26.721Z,30.10
2022-08-17T11:14:01.575Z,30.00
2022-08-17T11:16:36.531Z,30.00
2022-08-17T11:19:22.131Z,30.00
2022-08-17T11:21:57.744Z,29.90
2022-08-17T11:25:22.139Z,29.90
2022-08-17T11:28:06.163Z,29.80
2022-08-17T11:30:48.547Z,29.80
2022-08-17T11:33:38.163Z,29.70
2022-08-17T11:36:11.293Z,29.70
2022-08-17T11:39:17.675Z,29.60
2022-08-17T11:41:50.012Z,29.60
2022-08-17T11:44:54.823Z,29.50
2022-08-17T11:48:27.350Z,29.50
2022-08-17T11:51:37.416Z,29.40
2022-08-17T11:54:34.138Z,29.30
2022-08-17T11:57:32.634Z,29.30
2022-08-17T12:00:15.297Z,29.20
2022-08-17T12:02:50.089Z,29.20
2022-08-17T12:05:19.119Z,29.10
2022-08-17T12:08:11.884Z,29.10
2022-08-17T12:11:02.123Z,29.10
2022-08-17T12:13:38.628Z,29.00
2022-08-17T12:16:10.994Z,29.00
2022-08-17T12:18:43.152Z,29.00
2022-08-17T12:21:42.051Z,28.90
2022-08-17T12:24:42.400Z,28.90
2022-08-17T12:27:13.431Z,28.80
2022-08-17T12:29:46.274Z,28.80
2022-08-17T12:32:22.144Z,28.80
2022-08-17T12:34:52.606Z,28.70
2022-08-17T12:37:33.065Z,28.70
2022-08-17T12:40:23.683Z,28.70
2022-08-17T12:43:06.153Z,28.70
2022-08-17T12:45:40.564Z,28.70
2022-08-17T12:48:23.900Z,28.70
2022-08-17T12:50:54.144Z,28.60
2022-08-17T12:53:28.345Z,28.60
2022-08-17T12:56:00.544Z,28.60
2022-08-17T12:58:36.193Z,28.60
2022-08-17T13:01:16.171Z,28.50
2022-08-17T13:04:00.742Z,28.50
2022-08-17T13:06:36.903Z,28.40
2022-08-17T13:09:21.111Z,28.40
2022-08-17T13:11:54.475Z,28.40
2022-08-17T13:14:24.183Z,28.30
2022-08-17T13:17:02.730Z,28.40
2022-08-17T13:19:40.486Z,28.30
2022-08-17T13:22:14.001Z,28.30
2022-08-17T13:24:54.163Z,28.30
2022-08-17T13:27:26.753Z,28.30
2022-08-17T13:30:02.550Z,28.30
2022-08-17T13:32:43.992Z,28.30
2022-08-17T13:35:39.283Z,28.30
2022-08-17T13:38:13.208Z,28.30
2022-08-17T13:40:54.087Z,28.30
2022-08-17T13:43:46.126Z,28.30
2022-08-17T13:46:28.510Z,28.30
2022-08-17T13:49:12.667Z,28.30
2022-08-17T13:51:45.440Z,28.30
2022-08-17T13:54:35.914Z,28.30
2022-08-17T13:57:05.293Z,28.30
2022-08-17T13:59:54.867Z,28.30
2022-08-17T14:02:28.514Z,28.30
2022-08-17T14:04:59.121Z,28.20
2022-08-17T14:07:32.865Z,28.20
2022-08-17T14:10:04.565Z,28.20
2022-08-17T14:12:36.438Z,28.10
2022-08-17T14:15:08.089Z,28.10
2022-08-17T14:17:39.070Z,28.00
2022-08-17T14:20:14.097Z,27.80
2022-08-17T14:22:47.816Z,27.70
2022-08-17T14:25:23.773Z,27.60
2022-08-17T14:27:54.369Z,27.50
2022-08-17T14:30:28.989Z,27.40
2022-08-17T14:33:00.631Z,27.30
2022-08-17T14:35:30.790Z,27.30
2022-08-17T14:38:00.499Z,27.20
2022-08-17T14:40:30.454Z,27.10
2022-08-17T14:42:59.973Z,27.00
2022-08-17T14:45:31.813Z,27.00
2022-08-17T14:48:09.970Z,26.90
2022-08-17T14:50:44.538Z,26.90
2022-08-17T14:53:17.242Z,26.90
2022-08-17T14:55:47.461Z,26.80
2022-08-17T14:58:19.136Z,26.80
2022-08-17T15:00:51.918Z,26.80
2022-08-17T15:03:21.018Z,26.70
2022-08-17T15:05:50.074Z,26.70
2022-08-17T15:08:19.745Z,26.60
2022-08-17T15:10:54.389Z,26.50
2022-08-17T15:13:26.981Z,26.50
2022-08-17T15:15:56.458Z,26.40
2022-08-17T15:18:26.092Z,26.30
2022-08-17T15:20:55.288Z,26.20
2022-08-17T15:23:27.741Z,26.10
2022-08-17T15:25:57.243Z,26.00
2022-08-17T15:28:26.514Z,25.90
2022-08-17T15:30:56.186Z,25.80
2022-08-17T15:33:31.461Z,25.70
2022-08-17T15:36:03.102Z,25.60
2022-08-17T15:38:35.233Z,25.50
2022-08-17T15:41:05.209Z,25.40
2022-08-17T15:43:35.013Z,25.40
2022-08-17T15:46:13.334Z,25.40
2022-08-17T15:48:44.493Z,25.40
2022-08-17T15:51:18.985Z,25.30
2022-08-17T15:53:51.287Z,25.30
2022-08-17T15:56:21.148Z,25.30
2022-08-17T15:58:51.647Z,25.30
2022-08-17T16:02:29.843Z,25.30
2022-08-17T16:04:30.545Z,25.40
2022-08-17T16:07:01.101Z,25.40
2022-08-17T16:09:31.030Z,25.40
2022-08-17T16:12:09.373Z,25.50
2022-08-17T16:14:38.875Z,25.50
2022-08-17T16:17:29.622Z,25.50
2022-08-17T16:20:00.070Z,25.60
2022-08-17T16:22:37.665Z,25.60
2022-08-17T16:25:11.025Z,25.60
2022-08-17T16:27:40.477Z,25.60
2022-08-17T16:30:16.914Z,25.60
2022-08-17T16:32:47.938Z,25.60
2022-08-17T16:35:18.166Z,25.60
2022-08-17T16:37:48.195Z,25.60
2022-08-17T16:40:19.521Z,25.60
2022-08-17T16:42:50.318Z,25.60
2022-08-17T16:45:27.480Z,25.60
2022-08-17T16:48:00.215Z,25.60
2022-08-17T16:50:29.707Z,25.60
2022-08-17T16:53:19.505Z,25.60
2022-08-17T16:55:53.062Z,25.60
2022-08-17T16:58:22.468Z,25.60
2022-08-17T17:00:51.922Z,25.60
2022-08-17T17:03:26.274Z,25.60
2022-08-17T17:06:16.710Z,25.60
2022-08-17T17:09:05.775Z,25.60
2022-08-17T17:11:40.942Z,25.60
2022-08-17T17:14:29.546Z,25.70
2022-08-17T17:17:01.909Z,25.70
2022-08-17T17:20:09.646Z,25.70
2022-08-17T17:22:49.008Z,25.70
2022-08-17T17:25:40.688Z,25.70
2022-08-17T17:28:44.295Z,25.70
2022-08-17T17:31:21.267Z,25.60
2022-08-17T17:34:01.590Z,25.60
2022-08-17T17:36:53.767Z,25.60
2022-08-17T17:39:43.815Z,25.60
2022-08-17T17:42:20.248Z,25.60
2022-08-17T17:44:58.687Z,25.60
2022-08-17T17:47:28.534Z,25.60
2022-08-17T17:49:57.961Z,25.60
2022-08-17T17:52:38.935Z,25.60
2022-08-17T17:55:11.017Z,25.60
2022-08-17T17:58:20.752Z,25.60
2022-08-17T18:01:24.323Z,25.60
2022-08-17T18:04:14.268Z,25.60
2022-08-17T18:07:02.248Z,25.60
2022-08-17T18:09:51.800Z,25.60
2022-08-17T18:12:47.593Z,25.60
2022-08-17T18:15:48.427Z,25.60
2022-08-17T18:18:23.701Z,25.60
2022-08-17T18:20:56.268Z,25.60
2022-08-17T18:23:28.631Z,25.50
2022-08-17T18:25:59.828Z,25.60
2022-08-17T18:28:31.576Z,25.60
2022-08-17T18:31:22.179Z,25.60
2022-08-17T18:33:54.530Z,25.60
2022-08-17T18:36:37.771Z,25.60
2022-08-17T18:39:17.833Z,25.60
2022-08-17T18:41:53.468Z,25.60
2022-08-17T18:44:32.222Z,25.60
2022-08-17T18:47:21.158Z,25.60
2022-08-17T18:50:00.049Z,25.60
2022-08-17T18:52:33.166Z,25.60
2022-08-17T18:55:09.909Z,25.60
2022-08-17T18:57:47.241Z,25.60
2022-08-17T19:00:40.595Z,25.60
2022-08-17T19:03:21.392Z,25.60
2022-08-17T19:05:57.327Z,25.60
2022-08-17T19:08:32.251Z,25.60
2022-08-17T19:11:07.535Z,25.60
2022-08-17T19:14:03.630Z,25.60
2022-08-17T19:16:53.279Z,25.60
2022-08-17T19:19:32.223Z,25.60
2022-08-17T19:22:28.472Z,25.60
2022-08-17T19:25:11.387Z,25.60
2022-08-17T19:28:03.929Z,25.60
2022-08-17T19:30:41.971Z,25.60
2022-08-17T19:33:13.075Z,25.70
2022-08-17T19:35:56.865Z,25.70
2022-08-17T19:39:05.426Z,25.60
2022-08-17T19:41:59.461Z,25.70
2022-08-17T19:44:37.920Z,25.70
2022-08-17T19:47:36.647Z,25.60
2022-08-17T19:50:23.652Z,25.70
2022-08-17T19:52:55.475Z,25.70
2022-08-17T19:55:49.570Z,25.60
2022-08-17T19:58:41.463Z,25.60
2022-08-17T20:01:19.128Z,25.60
2022-08-17T20:04:17.957Z,25.60
2022-08-17T20:06:54.279Z,25.60
2022-08-17T20:10:07.623Z,25.60
2022-08-17T20:12:41.013Z,25.60
2022-08-17T20:15:26.727Z,25.50
2022-08-17T20:18:02.693Z,25.50
2022-08-17T20:20:46.910Z,25.50
2022-08-17T20:23:16.041Z,25.50
2022-08-17T20:25:56.503Z,25.50
2022-08-17T20:28:29.860Z,25.50
2022-08-17T20:31:00.113Z,25.50
2022-08-17T20:33:38.506Z,25.50
2022-08-17T20:36:20.971Z,25.50
2022-08-17T20:38:55.287Z,25.50
2022-08-17T20:41:31.033Z,25.50
2022-08-17T20:44:00.294Z,25.50
2022-08-17T20:47:02.750Z,25.50
2022-08-17T20:49:49.889Z,25.50
2022-08-17T20:52:48.898Z,25.50
2022-08-17T20:55:52.197Z,25.50
2022-08-17T20:58:30.649Z,25.50
2022-08-17T21:01:01.911Z,25.50
2022-08-17T21:03:48.046Z,25.50
2022-08-17T21:06:23.748Z,25.50
2022-08-17T21:08:59.963Z,25.50
2022-08-17T21:12:02.266Z,25.50
2022-08-17T21:14:35.486Z,25.40
2022-08-17T21:17:18.735Z,25.40
2022-08-17T21:20:11.872Z,25.40
2022-08-17T21:23:22.796Z,25.40
2022-08-17T21:26:07.188Z,25.40
2022-08-17T21:29:00.254Z,25.40
2022-08-17T21:31:35.421Z,25.40
2022-08-17T21:35:06.791Z,25.40
2022-08-17T21:37:42.241Z,25.40
2022-08-17T21:40:20.192Z,25.40
2022-08-17T21:43:28.123Z,25.40
2022-08-17T21:46:19.952Z,25.30
2022-08-17T21:48:54.387Z,25.30
2022-08-17T21:51:30.055Z,25.30
2022-08-17T21:54:15.866Z,25.30
2022-08-17T21:56:49.944Z,25.30
2022-08-17T21:59:28.497Z,25.30
2022-08-17T22:02:01.944Z,25.30
2022-08-17T22:04:39.712Z,25.30
2022-08-17T22:07:14.920Z,25.30
2022-08-17T22:09:49.711Z,25.20
2022-08-17T22:12:25.377Z,25.20
2022-08-17T22:15:10.694Z,25.20
2022-08-17T22:17:47.696Z,25.20
2022-08-17T22:20:20.891Z,25.20
2022-08-17T22:23:08.236Z,25.20
2022-08-17T22:25:57.941Z,25.20
2022-08-17T22:28:50.332Z,25.20
2022-08-17T22:31:22.261Z,25.20
2022-08-17T22:34:02.142Z,25.20
2022-08-17T22:36:36.969Z,25.20
2022-08-17T22:39:12.077Z,25.20
2022-08-17T22:42:01.398Z,25.10
2022-08-17T22:44:33.027Z,25.10
2022-08-17T22:47:20.728Z,25.10
2022-08-17T22:50:01.665Z,25.10
2022-08-17T22:52:57.246Z,25.10
2022-08-17T22:55:45.405Z,25.10
2022-08-17T22:58:36.984Z,25.10
2022-08-17T23:01:46.502Z,25.10
2022-08-17T23:04:34.866Z,25.10
2022-08-17T23:07:04.373Z,25.00
2022-08-17T23:09:33.915Z,25.00
2022-08-17T23:12:03.578Z,25.00
2022-08-17T23:14:33.050Z,25.00
2022-08-17T23:17:03.165Z,25.00
2022-08-17T23:19:32.787Z,25.10
2022-08-17T23:22:05.485Z,25.10
2022-08-17T23:24:41.346Z,25.10
2022-08-17T23:27:11.180Z,25.00
2022-08-17T23:29:43.067Z,25.10
2022-08-17T23:32:15.752Z,25.10
2022-08-17T23:34:48.065Z,25.10
2022-08-17T23:37:18.998Z,25.10
2022-08-17T23:39:48.499Z,25.10
2022-08-17T23:42:22.995Z,25.10
2022-08-17T23:44:52.324Z,25.10
2022-08-17T23:47:22.202Z,25.10
2022-08-17T23:49:54.215Z,25.10
2022-08-17T23:52:25.475Z,25.20
2022-08-17T23:54:54.884Z,25.20
2022-08-17T23:57:33.733Z,25.20
